sensor_id;sensor_type;location;lat;lon;timestamp;temperature;humidity
25933;DHT22;13731;51.166;4.474;2023-06-01T00:00:32;14.70;12.80
25933;DHT22;13731;51.166;4.474;2023-06-01T00:28:45;14.30;99.90
25933;DHT22;13731;51.166;4.474;2023-06-01T00:31:11;14.20;99.90
25933;DHT22;13731;51.166;4.474;2023-06-01T00:33:37;14.20;99.90
25933;DHT22;13731;51.166;4.474;2023-06-01T00:36:02;14.00;1.00
25933;DHT22;13731;51.166;4.474;2023-06-01T00:38:28;14.00;99.90
25933;DHT22;13731;51.166;4.474;2023-06-01T00:40:54;13.90;99.90
25933;DHT22;13731;51.166;4.474;2023-06-01T00:43:19;13.80;99.90
25933;DHT22;13731;51.166;4.474;2023-06-01T00:45:45;13.90;99.90
25933;DHT22;13731;51.166;4.474;2023-06-01T00:48:11;14.00;1.00
25933;DHT22;13731;51.166;4.474;2023-06-01T00:50:38;13.90;1.00
25933;DHT22;13731;51.166;4.474;2023-06-01T00:53:05;13.90;1.00
25933;DHT22;13731;51.166;4.474;2023-06-01T00:55:32;13.90;99.90
25933;DHT22;13731;51.166;4.474;2023-06-01T00:57:58;13.90;1.00
25933;DHT22;13731;51.166;4.474;2023-06-01T01:00:24;13.80;66.90
25933;DHT22;13731;51.166;4.474;2023-06-01T01:02:52;14.00;1.00
25933;DHT22;13731;51.166;4.474;2023-06-01T01:05:17;14.10;99.90
25933;DHT22;13731;51.166;4.474;2023-06-01T01:08:02;13.90;99.90
25933;DHT22;13731;51.166;4.474;2023-06-01T01:13:19;13.80;1.00
25933;DHT22;13731;51.166;4.474;2023-06-01T01:18:33;13.90;99.90
25933;DHT22;13731;51.166;4.474;2023-06-01T01:21:00;13.80;99.90
25933;DHT22;13731;51.166;4.474;2023-06-01T01:28:40;13.60;1.00
25933;DHT22;13731;51.166;4.474;2023-06-01T01:31:08;13.60;1.00
25933;DHT22;13731;51.166;4.474;2023-06-01T01:33:34;13.40;99.90
25933;DHT22;13731;51.166;4.474;2023-06-01T01:36:00;13.50;99.90
25933;DHT22;13731;51.166;4.474;2023-06-01T01:38:27;13.40;1.00
25933;DHT22;13731;51.166;4.474;2023-06-01T01:40:53;13.40;33.90
25933;DHT22;13731;51.166;4.474;2023-06-01T01:43:20;13.30;99.90
25933;DHT22;13731;51.166;4.474;2023-06-01T01:45:46;13.30;99.90
25933;DHT22;13731;51.166;4.474;2023-06-01T01:48:18;13.10;1.00
25933;DHT22;13731;51.166;4.474;2023-06-01T01:51:07;13.00;99.90
25933;DHT22;13731;51.166;4.474;2023-06-01T01:53:32;13.00;1.00
25933;DHT22;13731;51.166;4.474;2023-06-01T01:55:58;13.00;99.90
25933;DHT22;13731;51.166;4.474;2023-06-01T01:58:25;12.90;99.90
25933;DHT22;13731;51.166;4.474;2023-06-01T02:00:52;12.80;99.90
25933;DHT22;13731;51.166;4.474;2023-06-01T02:03:18;12.90;99.90
25933;DHT22;13731;51.166;4.474;2023-06-01T02:05:44;12.90;99.90
25933;DHT22;13731;51.166;4.474;2023-06-01T02:08:11;12.70;1.00
25933;DHT22;13731;51.166;4.474;2023-06-01T02:10:37;12.60;1.00
25933;DHT22;13731;51.166;4.474;2023-06-01T02:13:03;12.60;1.00
25933;DHT22;13731;51.166;4.474;2023-06-01T02:15:30;12.60;99.90
25933;DHT22;13731;51.166;4.474;2023-06-01T02:17:55;12.60;99.90
25933;DHT22;13731;51.166;4.474;2023-06-01T02:20:22;12.70;99.90
25933;DHT22;13731;51.166;4.474;2023-06-01T02:22:48;12.60;99.90
25933;DHT22;13731;51.166;4.474;2023-06-01T02:25:13;12.40;99.90
25933;DHT22;13731;51.166;4.474;2023-06-01T02:27:40;12.30;1.00
25933;DHT22;13731;51.166;4.474;2023-06-01T02:30:06;12.20;99.90
25933;DHT22;13731;51.166;4.474;2023-06-01T02:32:33;12.20;99.90
25933;DHT22;13731;51.166;4.474;2023-06-01T02:35:00;12.20;1.00
25933;DHT22;13731;51.166;4.474;2023-06-01T02:37:26;12.20;1.00
25933;DHT22;13731;51.166;4.474;2023-06-01T02:39:52;12.30;1.00
25933;DHT22;13731;51.166;4.474;2023-06-01T02:42:20;12.20;1.00
25933;DHT22;13731;51.166;4.474;2023-06-01T02:44:46;12.10;1.00
25933;DHT22;13731;51.166;4.474;2023-06-01T02:47:12;12.00;99.90
25933;DHT22;13731;51.166;4.474;2023-06-01T02:49:38;12.00;99.90
25933;DHT22;13731;51.166;4.474;2023-06-01T02:52:03;12.00;58.10
25933;DHT22;13731;51.166;4.474;2023-06-01T02:54:29;11.90;1.00
25933;DHT22;13731;51.166;4.474;2023-06-01T02:56:58;12.00;9.70
25933;DHT22;13731;51.166;4.474;2023-06-01T02:59:35;11.90;1.00
25933;DHT22;13731;51.166;4.474;2023-06-01T03:02:02;11.80;99.90
25933;DHT22;13731;51.166;4.474;2023-06-01T03:04:29;11.90;99.90
25933;DHT22;13731;51.166;4.474;2023-06-01T03:06:58;12.00;38.30
25933;DHT22;13731;51.166;4.474;2023-06-01T03:09:34;12.00;1.00
25933;DHT22;13731;51.166;4.474;2023-06-01T03:12:07;12.00;99.90
25933;DHT22;13731;51.166;4.474;2023-06-01T03:14:34;11.80;1.00
25933;DHT22;13731;51.166;4.474;2023-06-01T03:17:00;12.00;99.90
25933;DHT22;13731;51.166;4.474;2023-06-01T03:19:26;11.80;1.00
25933;DHT22;13731;51.166;4.474;2023-06-01T03:21:54;11.80;1.00
25933;DHT22;13731;51.166;4.474;2023-06-01T03:24:22;11.70;1.00
25933;DHT22;13731;51.166;4.474;2023-06-01T03:26:54;11.70;1.00
25933;DHT22;13731;51.166;4.474;2023-06-01T03:29:21;11.70;1.00
25933;DHT22;13731;51.166;4.474;2023-06-01T03:31:47;11.70;1.00
25933;DHT22;13731;51.166;4.474;2023-06-01T03:34:14;11.60;1.00
25933;DHT22;13731;51.166;4.474;2023-06-01T03:36:40;11.50;73.40
25933;DHT22;13731;51.166;4.474;2023-06-01T03:39:06;11.50;15.00
25933;DHT22;13731;51.166;4.474;2023-06-01T03:41:35;11.50;99.90
25933;DHT22;13731;51.166;4.474;2023-06-01T03:44:03;11.50;99.90
25933;DHT22;13731;51.166;4.474;2023-06-01T03:46:29;11.50;1.00
25933;DHT22;13731;51.166;4.474;2023-06-01T03:48:54;11.50;99.90
25933;DHT22;13731;51.166;4.474;2023-06-01T03:51:20;11.50;96.30
25933;DHT22;13731;51.166;4.474;2023-06-01T03:53:46;11.50;23.80
25933;DHT22;13731;51.166;4.474;2023-06-01T03:56:12;11.50;56.20
25933;DHT22;13731;51.166;4.474;2023-06-01T03:58:40;11.50;1.00
25933;DHT22;13731;51.166;4.474;2023-06-01T04:01:07;11.50;1.00
25933;DHT22;13731;51.166;4.474;2023-06-01T04:03:33;11.60;1.00
25933;DHT22;13731;51.166;4.474;2023-06-01T04:05:59;11.60;1.00
25933;DHT22;13731;51.166;4.474;2023-06-01T04:08:30;11.60;99.90
25933;DHT22;13731;51.166;4.474;2023-06-01T04:10:57;11.70;99.90
25933;DHT22;13731;51.166;4.474;2023-06-01T04:13:23;11.80;99.90
25933;DHT22;13731;51.166;4.474;2023-06-01T04:15:49;11.80;1.00
25933;DHT22;13731;51.166;4.474;2023-06-01T04:18:19;11.90;1.00
25933;DHT22;13731;51.166;4.474;2023-06-01T04:20:54;11.70;99.90
25933;DHT22;13731;51.166;4.474;2023-06-01T04:23:20;11.90;99.90
25933;DHT22;13731;51.166;4.474;2023-06-01T04:25:46;12.10;1.00
25933;DHT22;13731;51.166;4.474;2023-06-01T04:28:17;12.10;99.90
25933;DHT22;13731;51.166;4.474;2023-06-01T04:30:43;12.10;99.90
25933;DHT22;13731;51.166;4.474;2023-06-01T04:33:13;12.10;1.00
25933;DHT22;13731;51.166;4.474;2023-06-01T04:35:39;12.30;1.00
25933;DHT22;13731;51.166;4.474;2023-06-01T04:38:07;12.20;1.00
25933;DHT22;13731;51.166;4.474;2023-06-01T04:40:34;12.10;99.90
25933;DHT22;13731;51.166;4.474;2023-06-01T04:43:01;12.10;1.00
25933;DHT22;13731;51.166;4.474;2023-06-01T04:45:29;12.10;99.90
25933;DHT22;13731;51.166;4.474;2023-06-01T04:48:04;12.20;1.00
25933;DHT22;13731;51.166;4.474;2023-06-01T04:50:50;12.10;1.00
25933;DHT22;13731;51.166;4.474;2023-06-01T04:53:16;11.90;99.90
25933;DHT22;13731;51.166;4.474;2023-06-01T04:55:42;11.80;99.90
25933;DHT22;13731;51.166;4.474;2023-06-01T04:58:09;11.90;99.90
25933;DHT22;13731;51.166;4.474;2023-06-01T05:00:35;11.90;1.00
25933;DHT22;13731;51.166;4.474;2023-06-01T05:03:01;12.00;1.00
25933;DHT22;13731;51.166;4.474;2023-06-01T05:05:28;12.00;99.90
25933;DHT22;13731;51.166;4.474;2023-06-01T05:07:54;11.90;99.90
25933;DHT22;13731;51.166;4.474;2023-06-01T05:10:20;12.10;99.90
25933;DHT22;13731;51.166;4.474;2023-06-01T05:12:47;12.10;99.90
25933;DHT22;13731;51.166;4.474;2023-06-01T05:15:14;12.30;1.00
25933;DHT22;13731;51.166;4.474;2023-06-01T05:17:42;12.40;1.00
25933;DHT22;13731;51.166;4.474;2023-06-01T05:20:11;12.40;99.90
25933;DHT22;13731;51.166;4.474;2023-06-01T05:22:38;12.20;99.90
25933;DHT22;13731;51.166;4.474;2023-06-01T05:25:04;12.20;1.00
25933;DHT22;13731;51.166;4.474;2023-06-01T05:27:33;12.50;99.90
25933;DHT22;13731;51.166;4.474;2023-06-01T05:29:59;12.80;99.90
25933;DHT22;13731;51.166;4.474;2023-06-01T05:32:26;12.60;99.90
25933;DHT22;13731;51.166;4.474;2023-06-01T05:34:54;12.80;99.90
25933;DHT22;13731;51.166;4.474;2023-06-01T05:37:20;13.20;57.30
25933;DHT22;13731;51.166;4.474;2023-06-01T05:39:47;13.10;99.90
25933;DHT22;13731;51.166;4.474;2023-06-01T05:42:14;13.20;1.00
25933;DHT22;13731;51.166;4.474;2023-06-01T05:44:39;13.10;1.00
25933;DHT22;13731;51.166;4.474;2023-06-01T05:47:05;13.20;1.00
25933;DHT22;13731;51.166;4.474;2023-06-01T05:49:31;13.30;99.90
25933;DHT22;13731;51.166;4.474;2023-06-01T05:51:58;13.30;1.00
25933;DHT22;13731;51.166;4.474;2023-06-01T05:54:27;13.30;50.90
25933;DHT22;13731;51.166;4.474;2023-06-01T05:56:53;13.30;99.90
25933;DHT22;13731;51.166;4.474;2023-06-01T05:59:19;13.70;1.00
25933;DHT22;13731;51.166;4.474;2023-06-01T06:01:45;13.80;99.90
25933;DHT22;13731;51.166;4.474;2023-06-01T06:04:11;13.70;1.00
25933;DHT22;13731;51.166;4.474;2023-06-01T06:06:37;13.90;99.90
25933;DHT22;13731;51.166;4.474;2023-06-01T06:09:03;13.80;99.90
25933;DHT22;13731;51.166;4.474;2023-06-01T06:11:29;13.80;1.00
25933;DHT22;13731;51.166;4.474;2023-06-01T06:13:55;13.90;99.90
25933;DHT22;13731;51.166;4.474;2023-06-01T06:16:21;13.70;1.00
25933;DHT22;13731;51.166;4.474;2023-06-01T06:18:47;14.10;99.90
25933;DHT22;13731;51.166;4.474;2023-06-01T06:21:12;14.70;1.00
25933;DHT22;13731;51.166;4.474;2023-06-01T06:23:38;14.80;99.90
25933;DHT22;13731;51.166;4.474;2023-06-01T06:26:05;14.30;1.00
25933;DHT22;13731;51.166;4.474;2023-06-01T06:28:32;14.10;99.90
25933;DHT22;13731;51.166;4.474;2023-06-01T06:30:58;14.60;1.00
25933;DHT22;13731;51.166;4.474;2023-06-01T06:33:24;14.70;99.90
25933;DHT22;13731;51.166;4.474;2023-06-01T06:35:50;14.80;99.90
25933;DHT22;13731;51.166;4.474;2023-06-01T06:38:16;15.20;99.90
25933;DHT22;13731;51.166;4.474;2023-06-01T06:40:42;15.30;99.90
25933;DHT22;13731;51.166;4.474;2023-06-01T06:43:08;15.40;1.00
25933;DHT22;13731;51.166;4.474;2023-06-01T06:45:34;15.10;99.90
25933;DHT22;13731;51.166;4.474;2023-06-01T06:48:00;14.80;99.90
25933;DHT22;13731;51.166;4.474;2023-06-01T06:50:26;14.90;99.90
25933;DHT22;13731;51.166;4.474;2023-06-01T06:52:52;14.90;99.90
25933;DHT22;13731;51.166;4.474;2023-06-01T06:55:18;15.00;99.90
25933;DHT22;13731;51.166;4.474;2023-06-01T06:57:44;15.40;53.40
25933;DHT22;13731;51.166;4.474;2023-06-01T07:00:10;15.60;1.00
25933;DHT22;13731;51.166;4.474;2023-06-01T07:02:40;16.00;1.00
25933;DHT22;13731;51.166;4.474;2023-06-01T07:05:07;15.60;1.00
25933;DHT22;13731;51.166;4.474;2023-06-01T07:07:33;15.70;1.00
25933;DHT22;13731;51.166;4.474;2023-06-01T07:09:59;15.70;48.20
25933;DHT22;13731;51.166;4.474;2023-06-01T07:12:25;15.20;99.90
25933;DHT22;13731;51.166;4.474;2023-06-01T07:14:51;14.90;99.90
25933;DHT22;13731;51.166;4.474;2023-06-01T07:17:16;14.70;99.90
25933;DHT22;13731;51.166;4.474;2023-06-01T07:19:42;14.40;1.00
25933;DHT22;13731;51.166;4.474;2023-06-01T07:22:09;14.20;1.00
25933;DHT22;13731;51.166;4.474;2023-06-01T07:24:35;14.40;1.00
25933;DHT22;13731;51.166;4.474;2023-06-01T07:27:01;14.50;1.00
25933;DHT22;13731;51.166;4.474;2023-06-01T07:29:29;14.50;1.00
25933;DHT22;13731;51.166;4.474;2023-06-01T07:31:56;14.50;1.00
25933;DHT22;13731;51.166;4.474;2023-06-01T07:34:22;14.50;1.00
25933;DHT22;13731;51.166;4.474;2023-06-01T07:36:48;14.70;99.90
25933;DHT22;13731;51.166;4.474;2023-06-01T07:39:14;15.10;99.90
25933;DHT22;13731;51.166;4.474;2023-06-01T07:41:40;15.10;99.90
25933;DHT22;13731;51.166;4.474;2023-06-01T07:44:06;15.10;99.90
25933;DHT22;13731;51.166;4.474;2023-06-01T07:46:33;15.00;99.90
25933;DHT22;13731;51.166;4.474;2023-06-01T07:48:59;14.90;99.90
25933;DHT22;13731;51.166;4.474;2023-06-01T07:51:25;15.00;99.90
25933;DHT22;13731;51.166;4.474;2023-06-01T07:53:51;15.00;99.90
25933;DHT22;13731;51.166;4.474;2023-06-01T07:56:17;15.30;13.10
25933;DHT22;13731;51.166;4.474;2023-06-01T07:58:42;15.20;1.00
25933;DHT22;13731;51.166;4.474;2023-06-01T08:01:09;15.30;1.00
25933;DHT22;13731;51.166;4.474;2023-06-01T08:03:36;15.40;1.00
25933;DHT22;13731;51.166;4.474;2023-06-01T08:06:02;15.40;1.00
25933;DHT22;13731;51.166;4.474;2023-06-01T08:08:30;15.60;1.00
25933;DHT22;13731;51.166;4.474;2023-06-01T08:10:56;15.70;1.00
25933;DHT22;13731;51.166;4.474;2023-06-01T08:13:22;15.60;1.00
25933;DHT22;13731;51.166;4.474;2023-06-01T08:15:48;15.60;1.00
25933;DHT22;13731;51.166;4.474;2023-06-01T08:18:15;16.00;1.00
25933;DHT22;13731;51.166;4.474;2023-06-01T08:20:41;16.10;99.90
25933;DHT22;13731;51.166;4.474;2023-06-01T08:23:07;16.10;1.00
25933;DHT22;13731;51.166;4.474;2023-06-01T08:25:33;16.10;99.90
25933;DHT22;13731;51.166;4.474;2023-06-01T08:27:59;16.30;99.90
25933;DHT22;13731;51.166;4.474;2023-06-01T08:30:26;16.40;99.90
25933;DHT22;13731;51.166;4.474;2023-06-01T08:32:51;16.30;99.90
25933;DHT22;13731;51.166;4.474;2023-06-01T08:35:17;16.30;99.90
25933;DHT22;13731;51.166;4.474;2023-06-01T08:37:44;16.50;99.90
25933;DHT22;13731;51.166;4.474;2023-06-01T08:40:12;16.50;99.90
25933;DHT22;13731;51.166;4.474;2023-06-01T08:45:07;16.90;99.90
25933;DHT22;13731;51.166;4.474;2023-06-01T08:47:33;17.20;99.90
25933;DHT22;13731;51.166;4.474;2023-06-01T08:50:01;17.00;99.90
25933;DHT22;13731;51.166;4.474;2023-06-01T08:52:28;17.00;99.90
25933;DHT22;13731;51.166;4.474;2023-06-01T08:54:54;17.00;99.90
25933;DHT22;13731;51.166;4.474;2023-06-01T08:57:20;17.20;99.90
25933;DHT22;13731;51.166;4.474;2023-06-01T08:59:46;17.20;99.90
25933;DHT22;13731;51.166;4.474;2023-06-01T09:02:13;17.10;99.90
25933;DHT22;13731;51.166;4.474;2023-06-01T09:04:42;17.00;99.90
25933;DHT22;13731;51.166;4.474;2023-06-01T09:07:10;17.10;99.90
25933;DHT22;13731;51.166;4.474;2023-06-01T09:09:36;17.00;99.90
25933;DHT22;13731;51.166;4.474;2023-06-01T09:14:46;17.80;99.90
25933;DHT22;13731;51.166;4.474;2023-06-01T09:17:22;17.80;99.90
25933;DHT22;13731;51.166;4.474;2023-06-01T09:19:53;17.90;99.90
25933;DHT22;13731;51.166;4.474;2023-06-01T09:22:20;18.00;99.90
25933;DHT22;13731;51.166;4.474;2023-06-01T09:24:59;18.10;99.90
25933;DHT22;13731;51.166;4.474;2023-06-01T09:27:25;18.30;99.90
25933;DHT22;13731;51.166;4.474;2023-06-01T09:29:55;18.50;99.90
25933;DHT22;13731;51.166;4.474;2023-06-01T09:32:21;18.30;99.90
25933;DHT22;13731;51.166;4.474;2023-06-01T09:34:47;18.20;99.90
25933;DHT22;13731;51.166;4.474;2023-06-01T09:37:13;18.40;99.90
25933;DHT22;13731;51.166;4.474;2023-06-01T09:39:39;18.90;99.90
25933;DHT22;13731;51.166;4.474;2023-06-01T09:42:05;18.90;99.90
25933;DHT22;13731;51.166;4.474;2023-06-01T09:44:35;19.10;99.90
25933;DHT22;13731;51.166;4.474;2023-06-01T09:47:05;19.10;99.90
25933;DHT22;13731;51.166;4.474;2023-06-01T09:49:32;19.40;99.90
25933;DHT22;13731;51.166;4.474;2023-06-01T09:54:30;19.30;99.90
25933;DHT22;13731;51.166;4.474;2023-06-01T09:56:59;19.60;97.70
25933;DHT22;13731;51.166;4.474;2023-06-01T09:59:25;19.70;89.10
25933;DHT22;13731;51.166;4.474;2023-06-01T10:01:57;19.80;92.30
25933;DHT22;13731;51.166;4.474;2023-06-01T10:04:27;19.70;98.80
25933;DHT22;13731;51.166;4.474;2023-06-01T10:06:54;19.70;99.90
25933;DHT22;13731;51.166;4.474;2023-06-01T10:09:20;20.70;85.60
25933;DHT22;13731;51.166;4.474;2023-06-01T10:11:47;21.60;30.00
25933;DHT22;13731;51.166;4.474;2023-06-01T10:14:14;22.80;2.50
25933;DHT22;13731;51.166;4.474;2023-06-01T10:16:40;24.10;1.00
25933;DHT22;13731;51.166;4.474;2023-06-01T10:19:07;25.60;1.00
25933;DHT22;13731;51.166;4.474;2023-06-01T10:21:33;26.20;1.00
25933;DHT22;13731;51.166;4.474;2023-06-01T10:23:59;27.10;1.00
25933;DHT22;13731;51.166;4.474;2023-06-01T10:26:25;26.60;1.00
25933;DHT22;13731;51.166;4.474;2023-06-01T10:28:52;26.20;1.00
25933;DHT22;13731;51.166;4.474;2023-06-01T10:34:05;28.50;1.00
25933;DHT22;13731;51.166;4.474;2023-06-01T10:39:26;29.80;1.00
25933;DHT22;13731;51.166;4.474;2023-06-01T10:41:53;28.10;1.00
25933;DHT22;13731;51.166;4.474;2023-06-01T10:47:48;30.40;1.00
25933;DHT22;13731;51.166;4.474;2023-06-01T10:52:37;30.60;1.00
25933;DHT22;13731;51.166;4.474;2023-06-01T10:57:33;30.00;1.00
25933;DHT22;13731;51.166;4.474;2023-06-01T11:00:32;30.40;1.00
25933;DHT22;13731;51.166;4.474;2023-06-01T11:08:01;27.70;1.00
25933;DHT22;13731;51.166;4.474;2023-06-01T11:13:12;28.80;1.00
25933;DHT22;13731;51.166;4.474;2023-06-01T11:15:39;29.70;1.00
25933;DHT22;13731;51.166;4.474;2023-06-01T11:20:52;31.30;1.00
25933;DHT22;13731;51.166;4.474;2023-06-01T11:23:19;30.90;1.00
25933;DHT22;13731;51.166;4.474;2023-06-01T11:25:45;30.10;1.00
25933;DHT22;13731;51.166;4.474;2023-06-01T11:28:12;29.50;1.00
25933;DHT22;13731;51.166;4.474;2023-06-01T11:30:39;30.20;1.00
25933;DHT22;13731;51.166;4.474;2023-06-01T11:33:05;29.60;1.00
25933;DHT22;13731;51.166;4.474;2023-06-01T11:35:31;29.50;1.00
25933;DHT22;13731;51.166;4.474;2023-06-01T11:37:57;29.30;1.00
25933;DHT22;13731;51.166;4.474;2023-06-01T11:40:23;29.60;1.00
25933;DHT22;13731;51.166;4.474;2023-06-01T11:42:49;31.30;1.00
25933;DHT22;13731;51.166;4.474;2023-06-01T11:45:15;32.00;1.00
25933;DHT22;13731;51.166;4.474;2023-06-01T11:47:42;30.70;1.00
25933;DHT22;13731;51.166;4.474;2023-06-01T11:50:19;31.30;1.00
25933;DHT22;13731;51.166;4.474;2023-06-01T11:52:46;31.50;1.00
25933;DHT22;13731;51.166;4.474;2023-06-01T11:55:11;32.00;1.00
25933;DHT22;13731;51.166;4.474;2023-06-01T11:57:42;32.60;1.00
25933;DHT22;13731;51.166;4.474;2023-06-01T12:00:11;32.40;1.00
25933;DHT22;13731;51.166;4.474;2023-06-01T12:02:40;32.20;1.00
25933;DHT22;13731;51.166;4.474;2023-06-01T12:05:07;32.20;1.00
25933;DHT22;13731;51.166;4.474;2023-06-01T12:07:44;31.80;1.00
25933;DHT22;13731;51.166;4.474;2023-06-01T12:10:11;32.50;1.00
25933;DHT22;13731;51.166;4.474;2023-06-01T12:12:39;31.70;1.00
25933;DHT22;13731;51.166;4.474;2023-06-01T12:15:05;30.70;1.00
25933;DHT22;13731;51.166;4.474;2023-06-01T12:20:25;31.20;1.00
25933;DHT22;13731;51.166;4.474;2023-06-01T12:22:51;31.40;1.00
25933;DHT22;13731;51.166;4.474;2023-06-01T12:25:17;32.90;1.00
25933;DHT22;13731;51.166;4.474;2023-06-01T12:27:42;32.00;1.00
25933;DHT22;13731;51.166;4.474;2023-06-01T12:30:21;32.80;1.00
25933;DHT22;13731;51.166;4.474;2023-06-01T12:32:47;32.80;1.00
25933;DHT22;13731;51.166;4.474;2023-06-01T12:35:13;33.70;1.00
25933;DHT22;13731;51.166;4.474;2023-06-01T12:37:39;33.00;1.00
25933;DHT22;13731;51.166;4.474;2023-06-01T12:40:05;33.90;1.00
25933;DHT22;13731;51.166;4.474;2023-06-01T12:42:38;33.50;1.00
25933;DHT22;13731;51.166;4.474;2023-06-01T12:45:05;33.60;1.00
25933;DHT22;13731;51.166;4.474;2023-06-01T12:47:34;33.90;1.00
25933;DHT22;13731;51.166;4.474;2023-06-01T12:50:07;33.00;1.00
25933;DHT22;13731;51.166;4.474;2023-06-01T12:52:37;32.30;1.00
25933;DHT22;13731;51.166;4.474;2023-06-01T12:55:04;31.90;1.00
25933;DHT22;13731;51.166;4.474;2023-06-01T12:57:30;32.20;1.00
25933;DHT22;13731;51.166;4.474;2023-06-01T12:59:56;32.20;1.00
25933;DHT22;13731;51.166;4.474;2023-06-01T13:02:22;32.70;1.00
25933;DHT22;13731;51.166;4.474;2023-06-01T13:04:49;33.30;1.00
25933;DHT22;13731;51.166;4.474;2023-06-01T13:07:16;32.60;1.00
25933;DHT22;13731;51.166;4.474;2023-06-01T13:09:41;33.50;1.00
25933;DHT22;13731;51.166;4.474;2023-06-01T13:12:08;32.70;1.00
25933;DHT22;13731;51.166;4.474;2023-06-01T13:14:34;33.10;1.00
25933;DHT22;13731;51.166;4.474;2023-06-01T13:17:00;32.90;1.00
25933;DHT22;13731;51.166;4.474;2023-06-01T13:19:28;30.90;1.00
25933;DHT22;13731;51.166;4.474;2023-06-01T13:21:53;32.30;1.00
25933;DHT22;13731;51.166;4.474;2023-06-01T13:24:19;34.00;1.00
25933;DHT22;13731;51.166;4.474;2023-06-01T13:26:45;34.00;1.00
25933;DHT22;13731;51.166;4.474;2023-06-01T13:29:11;32.90;1.00
25933;DHT22;13731;51.166;4.474;2023-06-01T13:31:37;33.20;1.00
25933;DHT22;13731;51.166;4.474;2023-06-01T13:34:03;32.20;1.00
25933;DHT22;13731;51.166;4.474;2023-06-01T13:36:29;32.10;1.00
25933;DHT22;13731;51.166;4.474;2023-06-01T13:38:55;33.10;1.00
25933;DHT22;13731;51.166;4.474;2023-06-01T13:41:21;34.70;1.00
25933;DHT22;13731;51.166;4.474;2023-06-01T13:43:47;36.00;1.00
25933;DHT22;13731;51.166;4.474;2023-06-01T13:46:13;35.00;1.00
25933;DHT22;13731;51.166;4.474;2023-06-01T13:48:39;35.50;1.00
25933;DHT22;13731;51.166;4.474;2023-06-01T13:51:05;34.80;1.00
25933;DHT22;13731;51.166;4.474;2023-06-01T13:53:31;35.00;1.00
25933;DHT22;13731;51.166;4.474;2023-06-01T13:55:58;34.30;1.00
25933;DHT22;13731;51.166;4.474;2023-06-01T13:58:24;34.60;1.00
25933;DHT22;13731;51.166;4.474;2023-06-01T14:00:50;33.80;1.00
25933;DHT22;13731;51.166;4.474;2023-06-01T14:03:16;34.10;1.00
25933;DHT22;13731;51.166;4.474;2023-06-01T14:05:42;33.70;1.00
25933;DHT22;13731;51.166;4.474;2023-06-01T14:08:08;33.80;1.00
25933;DHT22;13731;51.166;4.474;2023-06-01T14:10:33;34.50;1.00
25933;DHT22;13731;51.166;4.474;2023-06-01T14:13:00;34.00;1.00
25933;DHT22;13731;51.166;4.474;2023-06-01T14:15:26;33.60;1.00
25933;DHT22;13731;51.166;4.474;2023-06-01T14:17:52;33.80;1.00
25933;DHT22;13731;51.166;4.474;2023-06-01T14:20:17;33.60;1.00
25933;DHT22;13731;51.166;4.474;2023-06-01T14:22:43;33.70;1.00
25933;DHT22;13731;51.166;4.474;2023-06-01T14:25:09;33.60;1.00
25933;DHT22;13731;51.166;4.474;2023-06-01T14:27:35;35.10;1.00
25933;DHT22;13731;51.166;4.474;2023-06-01T14:30:03;34.60;1.00
25933;DHT22;13731;51.166;4.474;2023-06-01T14:32:29;34.20;1.00
25933;DHT22;13731;51.166;4.474;2023-06-01T14:34:56;34.90;1.00
25933;DHT22;13731;51.166;4.474;2023-06-01T14:37:21;34.60;1.00
25933;DHT22;13731;51.166;4.474;2023-06-01T14:39:47;34.10;1.00
25933;DHT22;13731;51.166;4.474;2023-06-01T14:42:13;34.70;1.00
25933;DHT22;13731;51.166;4.474;2023-06-01T14:44:38;33.70;1.00
25933;DHT22;13731;51.166;4.474;2023-06-01T14:47:04;34.00;1.00
25933;DHT22;13731;51.166;4.474;2023-06-01T14:49:30;35.10;1.00
25933;DHT22;13731;51.166;4.474;2023-06-01T14:51:56;35.10;1.00
25933;DHT22;13731;51.166;4.474;2023-06-01T14:54:22;35.90;1.00
25933;DHT22;13731;51.166;4.474;2023-06-01T14:56:48;34.90;1.00
25933;DHT22;13731;51.166;4.474;2023-06-01T14:59:14;34.60;1.00
25933;DHT22;13731;51.166;4.474;2023-06-01T15:01:40;33.90;1.00
25933;DHT22;13731;51.166;4.474;2023-06-01T15:04:06;34.00;1.00
25933;DHT22;13731;51.166;4.474;2023-06-01T15:06:32;32.70;1.00
25933;DHT22;13731;51.166;4.474;2023-06-01T15:08:58;34.10;1.00
25933;DHT22;13731;51.166;4.474;2023-06-01T15:11:23;34.60;1.00
25933;DHT22;13731;51.166;4.474;2023-06-01T15:13:49;34.20;1.00
25933;DHT22;13731;51.166;4.474;2023-06-01T15:16:15;33.70;1.00
25933;DHT22;13731;51.166;4.474;2023-06-01T15:18:41;33.40;1.00
25933;DHT22;13731;51.166;4.474;2023-06-01T15:21:06;33.70;1.00
25933;DHT22;13731;51.166;4.474;2023-06-01T15:23:32;34.70;1.00
25933;DHT22;13731;51.166;4.474;2023-06-01T15:25:58;34.80;1.00
25933;DHT22;13731;51.166;4.474;2023-06-01T15:28:24;34.30;1.00
25933;DHT22;13731;51.166;4.474;2023-06-01T15:30:50;33.60;1.00
25933;DHT22;13731;51.166;4.474;2023-06-01T15:33:16;33.80;1.00
25933;DHT22;13731;51.166;4.474;2023-06-01T15:35:42;33.70;1.00
25933;DHT22;13731;51.166;4.474;2023-06-01T15:38:07;34.30;1.00
25933;DHT22;13731;51.166;4.474;2023-06-01T15:40:33;34.90;1.00
25933;DHT22;13731;51.166;4.474;2023-06-01T15:42:59;32.40;1.00
25933;DHT22;13731;51.166;4.474;2023-06-01T15:45:24;32.30;1.00
25933;DHT22;13731;51.166;4.474;2023-06-01T15:47:50;32.80;1.00
25933;DHT22;13731;51.166;4.474;2023-06-01T15:50:17;32.50;1.00
25933;DHT22;13731;51.166;4.474;2023-06-01T15:52:43;31.30;1.00
25933;DHT22;13731;51.166;4.474;2023-06-01T15:55:09;31.50;1.00
25933;DHT22;13731;51.166;4.474;2023-06-01T15:57:35;31.70;1.00
25933;DHT22;13731;51.166;4.474;2023-06-01T16:00:01;32.10;1.00
25933;DHT22;13731;51.166;4.474;2023-06-01T16:02:36;31.50;1.00
25933;DHT22;13731;51.166;4.474;2023-06-01T16:05:04;30.70;1.00
25933;DHT22;13731;51.166;4.474;2023-06-01T16:07:30;30.40;1.00
25933;DHT22;13731;51.166;4.474;2023-06-01T16:09:56;31.10;1.00
25933;DHT22;13731;51.166;4.474;2023-06-01T16:12:21;31.90;1.00
25933;DHT22;13731;51.166;4.474;2023-06-01T16:14:47;32.50;1.00
25933;DHT22;13731;51.166;4.474;2023-06-01T16:17:13;31.80;1.00
25933;DHT22;13731;51.166;4.474;2023-06-01T16:19:42;31.60;1.00
25933;DHT22;13731;51.166;4.474;2023-06-01T16:22:08;32.30;1.00
25933;DHT22;13731;51.166;4.474;2023-06-01T16:24:34;31.50;1.00
25933;DHT22;13731;51.166;4.474;2023-06-01T16:27:01;30.60;1.00
25933;DHT22;13731;51.166;4.474;2023-06-01T16:29:27;30.20;1.00
25933;DHT22;13731;51.166;4.474;2023-06-01T16:31:52;30.80;1.00
25933;DHT22;13731;51.166;4.474;2023-06-01T16:34:18;32.00;1.00
25933;DHT22;13731;51.166;4.474;2023-06-01T16:36:44;32.30;1.00
25933;DHT22;13731;51.166;4.474;2023-06-01T16:39:09;31.50;1.00
25933;DHT22;13731;51.166;4.474;2023-06-01T16:41:35;30.60;1.00
25933;DHT22;13731;51.166;4.474;2023-06-01T16:44:01;30.00;1.00
25933;DHT22;13731;51.166;4.474;2023-06-01T16:46:27;29.50;1.00
25933;DHT22;13731;51.166;4.474;2023-06-01T16:48:52;29.20;1.00